sensor_id;sensor_type;location;lat;lon;timestamp;P1;durP1;ratioP1;P2;durP2;ratioP2
26536;SDS011;14204;51.262;5.488;2023-03-31T00:02:22;7.65;;;1.58;;
26536;SDS011;14204;51.262;5.488;2023-03-31T00:04:48;14.18;;;2.10;;
26536;SDS011;14204;51.262;5.488;2023-03-31T00:07:17;10.88;;;1.90;;
26536;SDS011;14204;51.262;5.488;2023-03-31T00:09:49;7.13;;;2.08;;
26536;SDS011;14204;51.262;5.488;2023-03-31T00:12:20;8.23;;;1.73;;
26536;SDS011;14204;51.262;5.488;2023-03-31T00:14:46;12.43;;;2.90;;
26536;SDS011;14204;51.262;5.488;2023-03-31T00:17:12;8.00;;;2.03;;
26536;SDS011;14204;51.262;5.488;2023-03-31T00:19:40;7.18;;;2.00;;
26536;SDS011;14204;51.262;5.488;2023-03-31T00:22:07;9.02;;;2.17;;
26536;SDS011;14204;51.262;5.488;2023-03-31T00:24:33;9.65;;;2.03;;
26536;SDS011;14204;51.262;5.488;2023-03-31T00:27:00;11.82;;;2.30;;
26536;SDS011;14204;51.262;5.488;2023-03-31T00:29:27;6.93;;;2.00;;
26536;SDS011;14204;51.262;5.488;2023-03-31T00:31:54;8.52;;;2.10;;
26536;SDS011;14204;51.262;5.488;2023-03-31T00:34:20;8.13;;;2.40;;
26536;SDS011;14204;51.262;5.488;2023-03-31T00:36:46;9.07;;;2.20;;
26536;SDS011;14204;51.262;5.488;2023-03-31T00:39:13;14.77;;;2.47;;
26536;SDS011;14204;51.262;5.488;2023-03-31T00:41:42;5.35;;;1.98;;
26536;SDS011;14204;51.262;5.488;2023-03-31T00:44:19;9.85;;;2.55;;
26536;SDS011;14204;51.262;5.488;2023-03-31T00:52:03;8.00;;;2.47;;
26536;SDS011;14204;51.262;5.488;2023-03-31T00:54:48;10.10;;;2.53;;
26536;SDS011;14204;51.262;5.488;2023-03-31T00:57:17;11.02;;;2.40;;
26536;SDS011;14204;51.262;5.488;2023-03-31T00:59:45;7.75;;;2.00;;
26536;SDS011;14204;51.262;5.488;2023-03-31T01:02:14;7.25;;;2.38;;
26536;SDS011;14204;51.262;5.488;2023-03-31T01:04:43;8.32;;;2.40;;
26536;SDS011;14204;51.262;5.488;2023-03-31T01:10:00;9.18;;;2.50;;
26536;SDS011;14204;51.262;5.488;2023-03-31T01:12:27;13.13;;;3.35;;
26536;SDS011;14204;51.262;5.488;2023-03-31T01:14:54;12.93;;;2.40;;
26536;SDS011;14204;51.262;5.488;2023-03-31T01:17:20;18.73;;;3.25;;
26536;SDS011;14204;51.262;5.488;2023-03-31T01:22:43;12.95;;;2.55;;
26536;SDS011;14204;51.262;5.488;2023-03-31T01:26:19;11.65;;;2.78;;
26536;SDS011;14204;51.262;5.488;2023-03-31T01:36:21;20.88;;;3.30;;
26536;SDS011;14204;51.262;5.488;2023-03-31T01:39:18;16.20;;;3.53;;
26536;SDS011;14204;51.262;5.488;2023-03-31T01:44:44;18.50;;;3.28;;
26536;SDS011;14204;51.262;5.488;2023-03-31T01:48:03;14.13;;;2.92;;
26536;SDS011;14204;51.262;5.488;2023-03-31T01:58:23;18.67;;;3.78;;
26536;SDS011;14204;51.262;5.488;2023-03-31T02:00:58;20.42;;;3.75;;
26536;SDS011;14204;51.262;5.488;2023-03-31T02:03:32;17.27;;;3.55;;
26536;SDS011;14204;51.262;5.488;2023-03-31T02:06:05;18.98;;;3.38;;
26536;SDS011;14204;51.262;5.488;2023-03-31T02:08:38;17.70;;;3.63;;
26536;SDS011;14204;51.262;5.488;2023-03-31T02:11:10;19.80;;;3.40;;
26536;SDS011;14204;51.262;5.488;2023-03-31T02:13:37;23.23;;;4.40;;
26536;SDS011;14204;51.262;5.488;2023-03-31T02:16:07;17.83;;;3.90;;
26536;SDS011;14204;51.262;5.488;2023-03-31T02:18:37;12.73;;;3.05;;
26536;SDS011;14204;51.262;5.488;2023-03-31T02:21:06;18.30;;;3.70;;
26536;SDS011;14204;51.262;5.488;2023-03-31T02:23:32;18.48;;;3.60;;
26536;SDS011;14204;51.262;5.488;2023-03-31T02:26:03;20.85;;;3.53;;
26536;SDS011;14204;51.262;5.488;2023-03-31T02:28:29;20.55;;;4.25;;
26536;SDS011;14204;51.262;5.488;2023-03-31T02:33:30;19.88;;;4.10;;
26536;SDS011;14204;51.262;5.488;2023-03-31T02:35:57;16.77;;;3.67;;
26536;SDS011;14204;51.262;5.488;2023-03-31T02:38:25;14.23;;;3.10;;
26536;SDS011;14204;51.262;5.488;2023-03-31T02:40:51;14.48;;;3.15;;
26536;SDS011;14204;51.262;5.488;2023-03-31T02:43:17;14.95;;;3.58;;
26536;SDS011;14204;51.262;5.488;2023-03-31T02:45:48;17.45;;;3.80;;
26536;SDS011;14204;51.262;5.488;2023-03-31T02:48:17;19.60;;;3.15;;
26536;SDS011;14204;51.262;5.488;2023-03-31T02:59:18;14.27;;;3.15;;
26536;SDS011;14204;51.262;5.488;2023-03-31T03:15:43;11.45;;;2.78;;
26536;SDS011;14204;51.262;5.488;2023-03-31T03:18:12;15.55;;;2.72;;
26536;SDS011;14204;51.262;5.488;2023-03-31T03:20:38;12.50;;;2.80;;
26536;SDS011;14204;51.262;5.488;2023-03-31T03:23:06;14.23;;;2.42;;
26536;SDS011;14204;51.262;5.488;2023-03-31T03:25:32;11.63;;;2.70;;
26536;SDS011;14204;51.262;5.488;2023-03-31T03:27:59;13.15;;;2.58;;
26536;SDS011;14204;51.262;5.488;2023-03-31T03:30:25;12.30;;;2.30;;
26536;SDS011;14204;51.262;5.488;2023-03-31T03:32:51;9.50;;;2.05;;
26536;SDS011;14204;51.262;5.488;2023-03-31T03:35:18;7.95;;;2.17;;
26536;SDS011;14204;51.262;5.488;2023-03-31T03:37:44;11.73;;;2.15;;
26536;SDS011;14204;51.262;5.488;2023-03-31T03:40:10;14.07;;;2.20;;
26536;SDS011;14204;51.262;5.488;2023-03-31T03:42:37;13.27;;;2.05;;
26536;SDS011;14204;51.262;5.488;2023-03-31T03:45:03;10.13;;;2.28;;
26536;SDS011;14204;51.262;5.488;2023-03-31T03:47:29;12.82;;;1.92;;
26536;SDS011;14204;51.262;5.488;2023-03-31T03:49:54;10.73;;;2.10;;
26536;SDS011;14204;51.262;5.488;2023-03-31T03:52:20;8.77;;;2.10;;
26536;SDS011;14204;51.262;5.488;2023-03-31T03:54:46;10.45;;;1.80;;
26536;SDS011;14204;51.262;5.488;2023-03-31T03:57:11;10.98;;;1.95;;
26536;SDS011;14204;51.262;5.488;2023-03-31T03:59:37;7.15;;;2.00;;
26536;SDS011;14204;51.262;5.488;2023-03-31T04:02:03;8.68;;;1.88;;
26536;SDS011;14204;51.262;5.488;2023-03-31T04:04:28;10.02;;;2.35;;
26536;SDS011;14204;51.262;5.488;2023-03-31T04:06:54;7.28;;;1.60;;
26536;SDS011;14204;51.262;5.488;2023-03-31T04:09:19;11.38;;;2.40;;
26536;SDS011;14204;51.262;5.488;2023-03-31T04:11:45;9.02;;;1.88;;
26536;SDS011;14204;51.262;5.488;2023-03-31T04:14:11;8.40;;;1.60;;
26536;SDS011;14204;51.262;5.488;2023-03-31T04:16:39;13.88;;;2.47;;
26536;SDS011;14204;51.262;5.488;2023-03-31T04:19:07;7.18;;;1.67;;
26536;SDS011;14204;51.262;5.488;2023-03-31T04:21:35;9.18;;;2.20;;
26536;SDS011;14204;51.262;5.488;2023-03-31T04:24:02;7.40;;;2.45;;
26536;SDS011;14204;51.262;5.488;2023-03-31T04:26:32;7.70;;;2.60;;
26536;SDS011;14204;51.262;5.488;2023-03-31T04:29:11;6.47;;;1.70;;
26536;SDS011;14204;51.262;5.488;2023-03-31T04:31:38;7.90;;;2.00;;
26536;SDS011;14204;51.262;5.488;2023-03-31T04:34:07;8.55;;;1.77;;
26536;SDS011;14204;51.262;5.488;2023-03-31T04:36:38;8.70;;;1.52;;
26536;SDS011;14204;51.262;5.488;2023-03-31T04:39:07;6.22;;;1.73;;
26536;SDS011;14204;51.262;5.488;2023-03-31T04:41:36;8.68;;;2.03;;
26536;SDS011;14204;51.262;5.488;2023-03-31T04:44:02;7.82;;;1.90;;
26536;SDS011;14204;51.262;5.488;2023-03-31T04:46:28;8.18;;;1.65;;
26536;SDS011;14204;51.262;5.488;2023-03-31T04:48:53;6.72;;;1.60;;
26536;SDS011;14204;51.262;5.488;2023-03-31T04:51:21;13.88;;;2.22;;
26536;SDS011;14204;51.262;5.488;2023-03-31T04:53:48;9.98;;;1.55;;
26536;SDS011;14204;51.262;5.488;2023-03-31T04:56:14;8.07;;;1.83;;
26536;SDS011;14204;51.262;5.488;2023-03-31T04:58:39;5.20;;;1.85;;
26536;SDS011;14204;51.262;5.488;2023-03-31T05:01:05;13.40;;;2.10;;
26536;SDS011;14204;51.262;5.488;2023-03-31T05:03:31;10.90;;;1.90;;
26536;SDS011;14204;51.262;5.488;2023-03-31T05:05:58;7.53;;;2.15;;
26536;SDS011;14204;51.262;5.488;2023-03-31T05:08:25;10.20;;;1.92;;
26536;SDS011;14204;51.262;5.488;2023-03-31T05:10:51;8.13;;;1.98;;
26536;SDS011;14204;51.262;5.488;2023-03-31T05:13:24;8.35;;;2.00;;
26536;SDS011;14204;51.262;5.488;2023-03-31T05:15:50;9.55;;;1.88;;
26536;SDS011;14204;51.262;5.488;2023-03-31T05:18:17;5.53;;;1.85;;
26536;SDS011;14204;51.262;5.488;2023-03-31T05:20:43;11.25;;;1.90;;
26536;SDS011;14204;51.262;5.488;2023-03-31T05:23:15;14.43;;;2.00;;
26536;SDS011;14204;51.262;5.488;2023-03-31T05:25:40;11.40;;;1.98;;
26536;SDS011;14204;51.262;5.488;2023-03-31T05:28:07;9.18;;;2.20;;
26536;SDS011;14204;51.262;5.488;2023-03-31T05:33:03;7.38;;;2.17;;
26536;SDS011;14204;51.262;5.488;2023-03-31T05:35:29;13.30;;;2.50;;
26536;SDS011;14204;51.262;5.488;2023-03-31T05:37:55;9.20;;;2.90;;
26536;SDS011;14204;51.262;5.488;2023-03-31T05:40:20;11.13;;;2.58;;
26536;SDS011;14204;51.262;5.488;2023-03-31T05:42:46;10.70;;;2.42;;
26536;SDS011;14204;51.262;5.488;2023-03-31T05:47:42;8.00;;;1.77;;
26536;SDS011;14204;51.262;5.488;2023-03-31T05:50:09;10.38;;;2.65;;
26536;SDS011;14204;51.262;5.488;2023-03-31T05:52:36;12.45;;;2.92;;
26536;SDS011;14204;51.262;5.488;2023-03-31T05:55:03;12.38;;;2.50;;
26536;SDS011;14204;51.262;5.488;2023-03-31T05:57:29;9.68;;;2.58;;
26536;SDS011;14204;51.262;5.488;2023-03-31T05:59:55;12.15;;;2.30;;
26536;SDS011;14204;51.262;5.488;2023-03-31T06:02:21;11.50;;;2.83;;
26536;SDS011;14204;51.262;5.488;2023-03-31T06:04:46;15.32;;;2.45;;
26536;SDS011;14204;51.262;5.488;2023-03-31T06:07:12;10.38;;;2.70;;
26536;SDS011;14204;51.262;5.488;2023-03-31T06:09:39;17.75;;;2.75;;
26536;SDS011;14204;51.262;5.488;2023-03-31T06:12:05;16.42;;;3.10;;
26536;SDS011;14204;51.262;5.488;2023-03-31T06:14:32;11.75;;;2.58;;
26536;SDS011;14204;51.262;5.488;2023-03-31T06:16:58;11.43;;;2.30;;
26536;SDS011;14204;51.262;5.488;2023-03-31T06:19:23;12.40;;;2.80;;
26536;SDS011;14204;51.262;5.488;2023-03-31T06:21:49;21.13;;;3.38;;
26536;SDS011;14204;51.262;5.488;2023-03-31T06:24:15;8.57;;;2.65;;
26536;SDS011;14204;51.262;5.488;2023-03-31T06:26:40;11.27;;;2.80;;
26536;SDS011;14204;51.262;5.488;2023-03-31T06:29:06;12.10;;;3.22;;
26536;SDS011;14204;51.262;5.488;2023-03-31T06:31:31;12.93;;;2.75;;
26536;SDS011;14204;51.262;5.488;2023-03-31T06:33:57;12.57;;;2.80;;
26536;SDS011;14204;51.262;5.488;2023-03-31T06:36:23;8.23;;;2.70;;
26536;SDS011;14204;51.262;5.488;2023-03-31T06:38:49;14.27;;;2.83;;
26536;SDS011;14204;51.262;5.488;2023-03-31T06:41:15;10.48;;;2.60;;
26536;SDS011;14204;51.262;5.488;2023-03-31T06:43:42;10.93;;;2.50;;
26536;SDS011;14204;51.262;5.488;2023-03-31T06:46:07;16.02;;;2.70;;
26536;SDS011;14204;51.262;5.488;2023-03-31T06:48:33;11.55;;;2.78;;
26536;SDS011;14204;51.262;5.488;2023-03-31T06:51:00;11.30;;;2.97;;
26536;SDS011;14204;51.262;5.488;2023-03-31T06:53:28;14.32;;;3.28;;
26536;SDS011;14204;51.262;5.488;2023-03-31T06:55:54;12.07;;;3.35;;
26536;SDS011;14204;51.262;5.488;2023-03-31T06:58:20;11.65;;;2.85;;
26536;SDS011;14204;51.262;5.488;2023-03-31T07:00:46;12.57;;;3.35;;
26536;SDS011;14204;51.262;5.488;2023-03-31T07:03:12;14.80;;;2.50;;
26536;SDS011;14204;51.262;5.488;2023-03-31T07:05:38;14.32;;;2.88;;
26536;SDS011;14204;51.262;5.488;2023-03-31T07:08:04;12.80;;;3.20;;
26536;SDS011;14204;51.262;5.488;2023-03-31T07:10:30;11.88;;;2.80;;
26536;SDS011;14204;51.262;5.488;2023-03-31T07:12:57;12.82;;;2.83;;
26536;SDS011;14204;51.262;5.488;2023-03-31T07:15:23;12.10;;;3.55;;
26536;SDS011;14204;51.262;5.488;2023-03-31T07:17:49;12.40;;;2.70;;
26536;SDS011;14204;51.262;5.488;2023-03-31T07:20:18;11.13;;;2.60;;
26536;SDS011;14204;51.262;5.488;2023-03-31T07:22:44;12.38;;;3.38;;
26536;SDS011;14204;51.262;5.488;2023-03-31T07:25:15;12.20;;;2.78;;
26536;SDS011;14204;51.262;5.488;2023-03-31T07:27:41;14.10;;;3.42;;
26536;SDS011;14204;51.262;5.488;2023-03-31T07:30:08;13.73;;;3.13;;
26536;SDS011;14204;51.262;5.488;2023-03-31T07:32:37;13.95;;;4.18;;
26536;SDS011;14204;51.262;5.488;2023-03-31T07:35:05;14.48;;;3.83;;
26536;SDS011;14204;51.262;5.488;2023-03-31T07:37:36;20.35;;;3.33;;
26536;SDS011;14204;51.262;5.488;2023-03-31T07:40:03;12.83;;;2.97;;
26536;SDS011;14204;51.262;5.488;2023-03-31T07:42:30;17.40;;;3.28;;
26536;SDS011;14204;51.262;5.488;2023-03-31T07:44:57;13.55;;;2.88;;
26536;SDS011;14204;51.262;5.488;2023-03-31T07:47:23;15.52;;;3.08;;
26536;SDS011;14204;51.262;5.488;2023-03-31T07:49:49;14.70;;;3.10;;
26536;SDS011;14204;51.262;5.488;2023-03-31T07:52:15;12.73;;;3.30;;
26536;SDS011;14204;51.262;5.488;2023-03-31T07:54:42;17.52;;;3.63;;
26536;SDS011;14204;51.262;5.488;2023-03-31T07:57:08;14.02;;;3.15;;
26536;SDS011;14204;51.262;5.488;2023-03-31T07:59:34;14.98;;;3.20;;
26536;SDS011;14204;51.262;5.488;2023-03-31T08:02:00;11.68;;;3.35;;
26536;SDS011;14204;51.262;5.488;2023-03-31T08:04:25;16.30;;;3.47;;
26536;SDS011;14204;51.262;5.488;2023-03-31T08:06:51;16.77;;;3.65;;
26536;SDS011;14204;51.262;5.488;2023-03-31T08:09:17;15.00;;;3.60;;
26536;SDS011;14204;51.262;5.488;2023-03-31T08:11:43;15.68;;;3.85;;
26536;SDS011;14204;51.262;5.488;2023-03-31T08:14:09;19.83;;;4.43;;
26536;SDS011;14204;51.262;5.488;2023-03-31T08:16:35;17.20;;;3.33;;
26536;SDS011;14204;51.262;5.488;2023-03-31T08:19:01;12.82;;;3.70;;
26536;SDS011;14204;51.262;5.488;2023-03-31T08:21:27;18.00;;;3.42;;
26536;SDS011;14204;51.262;5.488;2023-03-31T08:23:54;20.58;;;4.65;;
26536;SDS011;14204;51.262;5.488;2023-03-31T08:26:20;19.95;;;4.68;;
26536;SDS011;14204;51.262;5.488;2023-03-31T08:28:48;15.50;;;3.03;;
26536;SDS011;14204;51.262;5.488;2023-03-31T08:31:14;14.45;;;3.33;;
26536;SDS011;14204;51.262;5.488;2023-03-31T08:33:42;18.38;;;3.88;;
26536;SDS011;14204;51.262;5.488;2023-03-31T08:36:09;16.70;;;3.85;;
26536;SDS011;14204;51.262;5.488;2023-03-31T08:38:38;23.13;;;4.07;;
26536;SDS011;14204;51.262;5.488;2023-03-31T08:43:44;14.57;;;4.03;;
26536;SDS011;14204;51.262;5.488;2023-03-31T08:46:13;11.98;;;3.28;;
26536;SDS011;14204;51.262;5.488;2023-03-31T08:48:43;19.15;;;4.10;;
26536;SDS011;14204;51.262;5.488;2023-03-31T08:51:33;14.75;;;4.15;;
26536;SDS011;14204;51.262;5.488;2023-03-31T08:54:15;16.40;;;3.90;;
26536;SDS011;14204;51.262;5.488;2023-03-31T08:56:46;22.20;;;3.60;;
26536;SDS011;14204;51.262;5.488;2023-03-31T09:01:49;18.90;;;3.33;;
26536;SDS011;14204;51.262;5.488;2023-03-31T09:09:47;15.65;;;4.10;;
26536;SDS011;14204;51.262;5.488;2023-03-31T09:12:38;23.83;;;4.88;;
26536;SDS011;14204;51.262;5.488;2023-03-31T09:17:54;17.45;;;4.05;;
26536;SDS011;14204;51.262;5.488;2023-03-31T09:20:29;18.35;;;3.92;;
26536;SDS011;14204;51.262;5.488;2023-03-31T09:25:38;22.20;;;4.57;;
26536;SDS011;14204;51.262;5.488;2023-03-31T09:28:13;22.50;;;4.03;;
26536;SDS011;14204;51.262;5.488;2023-03-31T09:30:46;17.25;;;4.00;;
26536;SDS011;14204;51.262;5.488;2023-03-31T09:33:25;17.30;;;4.90;;
26536;SDS011;14204;51.262;5.488;2023-03-31T09:35:56;18.27;;;4.30;;
26536;SDS011;14204;51.262;5.488;2023-03-31T09:38:22;19.42;;;4.40;;
26536;SDS011;14204;51.262;5.488;2023-03-31T09:40:53;17.20;;;4.20;;
26536;SDS011;14204;51.262;5.488;2023-03-31T09:43:21;16.60;;;3.88;;
26536;SDS011;14204;51.262;5.488;2023-03-31T09:45:50;14.95;;;3.95;;
26536;SDS011;14204;51.262;5.488;2023-03-31T09:48:20;14.43;;;3.55;;
26536;SDS011;14204;51.262;5.488;2023-03-31T09:51:02;10.75;;;3.22;;
26536;SDS011;14204;51.262;5.488;2023-03-31T09:53:41;11.48;;;3.38;;
26536;SDS011;14204;51.262;5.488;2023-03-31T09:56:11;13.02;;;2.92;;
26536;SDS011;14204;51.262;5.488;2023-03-31T09:58:41;13.40;;;3.08;;
26536;SDS011;14204;51.262;5.488;2023-03-31T10:01:09;11.45;;;3.20;;
26536;SDS011;14204;51.262;5.488;2023-03-31T10:03:45;10.38;;;2.22;;
26536;SDS011;14204;51.262;5.488;2023-03-31T10:06:13;10.90;;;3.63;;
26536;SDS011;14204;51.262;5.488;2023-03-31T10:11:11;7.85;;;1.95;;
26536;SDS011;14204;51.262;5.488;2023-03-31T10:16:40;11.05;;;2.47;;
26536;SDS011;14204;51.262;5.488;2023-03-31T10:19:18;11.52;;;2.63;;
26536;SDS011;14204;51.262;5.488;2023-03-31T10:21:48;8.20;;;2.03;;
26536;SDS011;14204;51.262;5.488;2023-03-31T10:24:22;16.00;;;3.22;;
26536;SDS011;14204;51.262;5.488;2023-03-31T10:26:49;10.48;;;2.50;;
26536;SDS011;14204;51.262;5.488;2023-03-31T10:29:31;9.95;;;2.47;;
26536;SDS011;14204;51.262;5.488;2023-03-31T10:32:07;9.48;;;3.10;;
26536;SDS011;14204;51.262;5.488;2023-03-31T10:34:37;14.40;;;3.17;;
26536;SDS011;14204;51.262;5.488;2023-03-31T10:37:06;10.25;;;2.45;;
26536;SDS011;14204;51.262;5.488;2023-03-31T10:39:36;10.65;;;3.10;;
26536;SDS011;14204;51.262;5.488;2023-03-31T10:42:03;7.72;;;2.47;;
26536;SDS011;14204;51.262;5.488;2023-03-31T10:46:56;12.18;;;2.65;;
26536;SDS011;14204;51.262;5.488;2023-03-31T10:49:37;13.80;;;3.00;;
26536;SDS011;14204;51.262;5.488;2023-03-31T10:52:13;10.23;;;2.70;;
26536;SDS011;14204;51.262;5.488;2023-03-31T10:55:17;14.43;;;3.55;;
26536;SDS011;14204;51.262;5.488;2023-03-31T11:00:14;12.43;;;3.47;;
26536;SDS011;14204;51.262;5.488;2023-03-31T11:03:17;14.85;;;3.67;;
26536;SDS011;14204;51.262;5.488;2023-03-31T11:11:55;16.80;;;3.10;;
26536;SDS011;14204;51.262;5.488;2023-03-31T11:20:01;13.02;;;3.58;;
26536;SDS011;14204;51.262;5.488;2023-03-31T11:22:36;16.90;;;4.18;;
26536;SDS011;14204;51.262;5.488;2023-03-31T11:25:15;13.43;;;3.33;;
26536;SDS011;14204;51.262;5.488;2023-03-31T11:30:44;17.33;;;3.28;;
26536;SDS011;14204;51.262;5.488;2023-03-31T11:41:37;19.33;;;3.22;;
26536;SDS011;14204;51.262;5.488;2023-03-31T11:44:09;17.55;;;3.58;;
26536;SDS011;14204;51.262;5.488;2023-03-31T11:46:43;19.73;;;3.58;;
26536;SDS011;14204;51.262;5.488;2023-03-31T11:57:24;13.90;;;2.95;;
26536;SDS011;14204;51.262;5.488;2023-03-31T11:59:59;11.95;;;3.00;;
26536;SDS011;14204;51.262;5.488;2023-03-31T12:02:50;14.30;;;3.55;;
26536;SDS011;14204;51.262;5.488;2023-03-31T12:05:17;15.50;;;2.90;;
26536;SDS011;14204;51.262;5.488;2023-03-31T12:11:02;17.23;;;3.17;;
26536;SDS011;14204;51.262;5.488;2023-03-31T12:13:39;13.18;;;3.08;;
26536;SDS011;14204;51.262;5.488;2023-03-31T12:21:41;13.95;;;3.45;;
26536;SDS011;14204;51.262;5.488;2023-03-31T12:24:13;11.05;;;2.90;;
26536;SDS011;14204;51.262;5.488;2023-03-31T12:26:41;11.45;;;3.15;;
26536;SDS011;14204;51.262;5.488;2023-03-31T12:30:05;12.93;;;3.40;;
26536;SDS011;14204;51.262;5.488;2023-03-31T12:32:49;11.95;;;3.17;;
26536;SDS011;14204;51.262;5.488;2023-03-31T12:38:32;12.93;;;2.85;;
26536;SDS011;14204;51.262;5.488;2023-03-31T12:46:43;13.52;;;2.50;;
26536;SDS011;14204;51.262;5.488;2023-03-31T12:52:20;7.97;;;2.20;;
26536;SDS011;14204;51.262;5.488;2023-03-31T12:55:25;9.60;;;2.33;;
26536;SDS011;14204;51.262;5.488;2023-03-31T13:06:07;9.48;;;2.22;;
26536;SDS011;14204;51.262;5.488;2023-03-31T13:11:39;11.57;;;2.72;;
26536;SDS011;14204;51.262;5.488;2023-03-31T13:14:28;12.88;;;2.70;;
26536;SDS011;14204;51.262;5.488;2023-03-31T13:25:41;13.00;;;2.50;;
26536;SDS011;14204;51.262;5.488;2023-03-31T13:33:10;9.48;;;2.70;;
26536;SDS011;14204;51.262;5.488;2023-03-31T13:35:40;8.57;;;2.30;;
26536;SDS011;14204;51.262;5.488;2023-03-31T13:38:22;7.70;;;2.25;;
26536;SDS011;14204;51.262;5.488;2023-03-31T13:52:03;10.43;;;2.53;;
26536;SDS011;14204;51.262;5.488;2023-03-31T13:59:57;8.43;;;1.60;;
26536;SDS011;14204;51.262;5.488;2023-03-31T14:05:35;7.80;;;1.70;;
26536;SDS011;14204;51.262;5.488;2023-03-31T14:08:08;7.72;;;1.85;;
26536;SDS011;14204;51.262;5.488;2023-03-31T14:10:38;6.63;;;1.85;;
26536;SDS011;14204;51.262;5.488;2023-03-31T14:13:09;7.28;;;2.47;;
26536;SDS011;14204;51.262;5.488;2023-03-31T14:15:39;4.70;;;1.30;;
26536;SDS011;14204;51.262;5.488;2023-03-31T14:18:22;6.85;;;1.65;;
26536;SDS011;14204;51.262;5.488;2023-03-31T14:21:08;6.85;;;2.17;;
26536;SDS011;14204;51.262;5.488;2023-03-31T14:37:25;2.45;;;1.10;;
26536;SDS011;14204;51.262;5.488;2023-03-31T14:39:52;5.00;;;1.30;;
26536;SDS011;14204;51.262;5.488;2023-03-31T14:42:42;2.50;;;1.13;;
26536;SDS011;14204;51.262;5.488;2023-03-31T14:45:23;4.03;;;1.50;;
26536;SDS011;14204;51.262;5.488;2023-03-31T14:47:53;4.25;;;0.75;;
26536;SDS011;14204;51.262;5.488;2023-03-31T14:50:28;4.68;;;1.30;;
26536;SDS011;14204;51.262;5.488;2023-03-31T14:52:56;4.93;;;1.42;;
26536;SDS011;14204;51.262;5.488;2023-03-31T14:55:25;4.60;;;2.13;;
26536;SDS011;14204;51.262;5.488;2023-03-31T14:57:53;6.15;;;2.00;;
26536;SDS011;14204;51.262;5.488;2023-03-31T15:00:24;4.05;;;1.90;;
26536;SDS011;14204;51.262;5.488;2023-03-31T15:03:00;5.70;;;2.05;;
26536;SDS011;14204;51.262;5.488;2023-03-31T15:05:30;5.78;;;1.80;;
26536;SDS011;14204;51.262;5.488;2023-03-31T15:08:05;7.75;;;2.25;;
26536;SDS011;14204;51.262;5.488;2023-03-31T15:10:38;8.38;;;2.50;;
26536;SDS011;14204;51.262;5.488;2023-03-31T15:13:07;6.32;;;2.50;;
26536;SDS011;14204;51.262;5.488;2023-03-31T15:15:35;7.40;;;1.98;;
26536;SDS011;14204;51.262;5.488;2023-03-31T15:18:01;6.53;;;2.17;;
26536;SDS011;14204;51.262;5.488;2023-03-31T15:22:55;4.88;;;2.00;;
26536;SDS011;14204;51.262;5.488;2023-03-31T15:25:30;6.32;;;2.00;;
26536;SDS011;14204;51.262;5.488;2023-03-31T15:28:00;5.75;;;1.83;;
26536;SDS011;14204;51.262;5.488;2023-03-31T15:30:30;6.03;;;3.28;;
26536;SDS011;14204;51.262;5.488;2023-03-31T15:32:56;3.88;;;1.40;;
26536;SDS011;14204;51.262;5.488;2023-03-31T15:37:57;4.53;;;1.33;;
26536;SDS011;14204;51.262;5.488;2023-03-31T15:40:28;4.45;;;1.27;;
26536;SDS011;14204;51.262;5.488;2023-03-31T15:48:18;3.45;;;1.10;;
26536;SDS011;14204;51.262;5.488;2023-03-31T15:50:47;3.47;;;1.25;;
26536;SDS011;14204;51.262;5.488;2023-03-31T15:53:48;4.28;;;1.23;;
26536;SDS011;14204;51.262;5.488;2023-03-31T15:56:29;6.53;;;1.20;;
26536;SDS011;14204;51.262;5.488;2023-03-31T15:59:23;2.10;;;0.85;;
26536;SDS011;14204;51.262;5.488;2023-03-31T16:01:51;2.95;;;1.20;;
26536;SDS011;14204;51.262;5.488;2023-03-31T16:04:19;2.55;;;0.80;;
26536;SDS011;14204;51.262;5.488;2023-03-31T16:06:47;5.20;;;1.10;;
26536;SDS011;14204;51.262;5.488;2023-03-31T16:09:29;1.35;;;0.90;;
26536;SDS011;14204;51.262;5.488;2023-03-31T16:14:46;1.70;;;0.88;;
26536;SDS011;14204;51.262;5.488;2023-03-31T16:17:21;1.20;;;0.60;;
26536;SDS011;14204;51.262;5.488;2023-03-31T16:19:56;1.63;;;0.82;;
26536;SDS011;14204;51.262;5.488;2023-03-31T16:22:29;1.73;;;0.93;;
26536;SDS011;14204;51.262;5.488;2023-03-31T16:25:10;5.00;;;1.25;;
26536;SDS011;14204;51.262;5.488;2023-03-31T16:27:42;2.28;;;1.10;;
26536;SDS011;14204;51.262;5.488;2023-03-31T16:30:32;2.33;;;0.70;;
26536;SDS011;14204;51.262;5.488;2023-03-31T16:35:31;2.25;;;0.70;;
26536;SDS011;14204;51.262;5.488;2023-03-31T16:37:59;3.47;;;0.75;;
26536;SDS011;14204;51.262;5.488;2023-03-31T16:40:26;3.58;;;1.13;;
26536;SDS011;14204;51.262;5.488;2023-03-31T16:43:15;1.45;;;0.65;;
26536;SDS011;14204;51.262;5.488;2023-03-31T16:45:45;3.47;;;0.60;;
26536;SDS011;14204;51.262;5.488;2023-03-31T16:48:12;2.25;;;0.70;;
26536;SDS011;14204;51.262;5.488;2023-03-31T16:50:43;1.35;;;0.80;;
26536;SDS011;14204;51.262;5.488;2023-03-31T16:53:11;5.65;;;1.00;;
26536;SDS011;14204;51.262;5.488;2023-03-31T16:55:37;1.60;;;1.48;;
26536;SDS011;14204;51.262;5.488;2023-03-31T16:58:03;3.92;;;0.85;;
26536;SDS011;14204;51.262;5.488;2023-03-31T17:00:29;5.03;;;1.15;;
26536;SDS011;14204;51.262;5.488;2023-03-31T17:02:56;3.92;;;1.00;;
26536;SDS011;14204;51.262;5.488;2023-03-31T17:05:22;2.53;;;0.95;;
26536;SDS011;14204;51.262;5.488;2023-03-31T17:07:49;2.45;;;0.90;;
26536;SDS011;14204;51.262;5.488;2023-03-31T17:10:15;2.33;;;0.65;;
26536;SDS011;14204;51.262;5.488;2023-03-31T17:12:41;4.18;;;0.95;;
26536;SDS011;14204;51.262;5.488;2023-03-31T17:15:07;3.30;;;0.90;;
26536;SDS011;14204;51.262;5.488;2023-03-31T17:17:33;3.92;;;1.13;;
26536;SDS011;14204;51.262;5.488;2023-03-31T17:19:59;3.30;;;0.98;;
26536;SDS011;14204;51.262;5.488;2023-03-31T17:22:24;2.08;;;1.00;;
26536;SDS011;14204;51.262;5.488;2023-03-31T17:24:50;5.85;;;1.30;;
26536;SDS011;14204;51.262;5.488;2023-03-31T17:27:21;2.28;;;1.48;;
26536;SDS011;14204;51.262;5.488;2023-03-31T17:29:47;4.35;;;1.95;;
26536;SDS011;14204;51.262;5.488;2023-03-31T17:32:12;4.70;;;1.35;;
26536;SDS011;14204;51.262;5.488;2023-03-31T17:34:39;2.88;;;0.95;;
26536;SDS011;14204;51.262;5.488;2023-03-31T17:37:05;4.00;;;0.82;;
26536;SDS011;14204;51.262;5.488;2023-03-31T17:39:31;4.55;;;1.33;;
26536;SDS011;14204;51.262;5.488;2023-03-31T17:41:56;8.93;;;1.70;;
26536;SDS011;14204;51.262;5.488;2023-03-31T17:44:22;5.28;;;1.50;;
26536;SDS011;14204;51.262;5.488;2023-03-31T17:46:48;4.78;;;1.50;;
26536;SDS011;14204;51.262;5.488;2023-03-31T17:49:13;4.78;;;1.50;;
26536;SDS011;14204;51.262;5.488;2023-03-31T17:51:39;7.90;;;1.00;;
26536;SDS011;14204;51.262;5.488;2023-03-31T17:54:05;4.82;;;1.45;;
26536;SDS011;14204;51.262;5.488;2023-03-31T17:56:31;5.43;;;1.35;;
26536;SDS011;14204;51.262;5.488;2023-03-31T17:58:56;5.97;;;1.35;;
26536;SDS011;14204;51.262;5.488;2023-03-31T18:01:22;5.90;;;1.58;;
26536;SDS011;14204;51.262;5.488;2023-03-31T18:03:47;7.55;;;1.63;;
26536;SDS011;14204;51.262;5.488;2023-03-31T18:06:13;9.65;;;1.80;;
26536;SDS011;14204;51.262;5.488;2023-03-31T18:08:39;8.13;;;1.60;;
26536;SDS011;14204;51.262;5.488;2023-03-31T18:11:06;3.65;;;1.35;;
26536;SDS011;14204;51.262;5.488;2023-03-31T18:13:33;5.90;;;1.52;;
26536;SDS011;14204;51.262;5.488;2023-03-31T18:16:00;5.05;;;1.35;;
26536;SDS011;14204;51.262;5.488;2023-03-31T18:18:26;9.90;;;1.70;;
26536;SDS011;14204;51.262;5.488;2023-03-31T18:20:53;4.45;;;1.40;;
26536;SDS011;14204;51.262;5.488;2023-03-31T18:23:19;6.32;;;1.63;;
26536;SDS011;14204;51.262;5.488;2023-03-31T18:25:45;4.43;;;1.55;;
26536;SDS011;14204;51.262;5.488;2023-03-31T18:28:12;4.30;;;1.48;;
26536;SDS011;14204;51.262;5.488;2023-03-31T18:30:38;3.97;;;1.08;;